createdAt,value
2023-05-23T00:01:14.660Z,47.80
2023-05-23T00:03:41.620Z,50.70
2023-05-23T00:06:08.874Z,52.50
2023-05-23T00:08:35.624Z,48.60
2023-05-23T00:11:02.425Z,43.80
2023-05-23T00:13:29.071Z,36.92
2023-05-23T00:15:55.702Z,40.28
2023-05-23T00:18:24.649Z,40.55
2023-05-23T00:20:51.840Z,38.83
2023-05-23T00:23:22.473Z,39.92
2023-05-23T00:25:52.462Z,42.63
2023-05-23T00:28:19.728Z,41.70
2023-05-23T00:30:46.542Z,43.40
2023-05-23T00:33:14.354Z,39.63
2023-05-23T00:35:42.274Z,40.63
2023-05-23T00:38:11.353Z,42.40
2023-05-23T00:40:38.049Z,44.00
2023-05-23T00:43:04.871Z,46.22
2023-05-23T00:45:31.817Z,46.70
2023-05-23T00:48:00.107Z,42.55
2023-05-23T00:50:29.749Z,45.55
2023-05-23T00:52:58.778Z,46.15
2023-05-23T00:55:25.798Z,46.15
2023-05-23T00:57:57.635Z,46.08
2023-05-23T01:00:25.945Z,46.92
2023-05-23T01:02:53.880Z,49.38
2023-05-23T01:05:22.516Z,49.22
2023-05-23T01:07:50.254Z,47.35
2023-05-23T01:10:22.048Z,45.10
2023-05-23T01:13:26.709Z,45.30
2023-05-23T01:16:22.217Z,50.85
2023-05-23T01:18:59.002Z,51.63
2023-05-23T01:21:27.254Z,52.83
2023-05-23T01:24:03.666Z,51.55
2023-05-23T01:26:42.859Z,54.50
2023-05-23T01:29:17.988Z,52.03
2023-05-23T01:31:46.714Z,50.38
2023-05-23T01:34:14.393Z,51.28
2023-05-23T01:36:43.554Z,48.50
2023-05-23T01:39:10.583Z,47.83
2023-05-23T01:41:37.276Z,48.20
2023-05-23T01:44:05.609Z,45.55
2023-05-23T01:46:34.222Z,41.05
2023-05-23T01:49:03.728Z,42.78
2023-05-23T01:51:32.848Z,39.08
2023-05-23T01:53:59.837Z,43.65
2023-05-23T01:56:28.761Z,42.60
2023-05-23T01:58:55.546Z,40.55
2023-05-23T02:01:22.497Z,40.03
2023-05-23T02:03:49.579Z,40.03
2023-05-23T02:06:16.495Z,39.80
2023-05-23T02:08:43.147Z,37.42
2023-05-23T02:11:10.591Z,36.30
2023-05-23T02:13:37.322Z,36.80
2023-05-23T02:16:04.453Z,36.58
2023-05-23T02:18:31.107Z,37.90
2023-05-23T02:20:57.834Z,40.88
2023-05-23T02:23:24.458Z,37.03
2023-05-23T02:25:51.133Z,36.13
2023-05-23T02:28:17.864Z,34.55
2023-05-23T02:30:44.531Z,32.45
2023-05-23T02:33:11.279Z,31.58
2023-05-23T02:35:38.271Z,32.78
2023-05-23T02:38:05.010Z,31.02
2023-05-23T02:40:31.662Z,30.15
2023-05-23T02:42:58.429Z,32.13
2023-05-23T02:45:25.430Z,30.13
2023-05-23T02:47:52.148Z,29.63
2023-05-23T02:50:19.188Z,30.42
2023-05-23T02:52:45.951Z,30.13
2023-05-23T02:55:12.608Z,30.92
2023-05-23T02:57:43.517Z,29.85
2023-05-23T03:00:11.725Z,30.70
2023-05-23T03:02:38.782Z,33.00
2023-05-23T03:05:07.005Z,33.40
2023-05-23T03:07:33.760Z,31.42
2023-05-23T03:10:01.023Z,33.38
2023-05-23T03:12:29.115Z,34.25
2023-05-23T03:14:55.868Z,33.90
2023-05-23T03:17:25.505Z,33.67
2023-05-23T03:19:52.492Z,37.47
2023-05-23T03:22:19.458Z,35.47
2023-05-23T03:24:46.240Z,34.95
2023-05-23T03:27:12.956Z,35.90
2023-05-23T03:29:39.781Z,35.00
2023-05-23T03:32:06.762Z,38.20
2023-05-23T03:34:36.384Z,39.22
2023-05-23T03:37:04.085Z,40.38
2023-05-23T03:39:31.293Z,39.22
2023-05-23T03:41:57.951Z,40.55
2023-05-23T03:44:24.808Z,39.45
2023-05-23T03:46:51.520Z,41.33
2023-05-23T03:49:18.158Z,42.72
2023-05-23T03:51:44.814Z,37.25
2023-05-23T03:54:17.350Z,38.90
2023-05-23T03:56:44.077Z,41.05
2023-05-23T03:59:10.850Z,39.67
2023-05-23T04:01:37.747Z,38.47
2023-05-23T04:04:04.812Z,39.17
2023-05-23T04:06:34.180Z,38.33
2023-05-23T04:09:02.325Z,41.30
2023-05-23T04:11:30.175Z,39.17
2023-05-23T04:13:57.142Z,40.25
2023-05-23T04:16:24.404Z,40.67
2023-05-23T04:18:51.722Z,41.38
2023-05-23T04:21:18.442Z,44.45
2023-05-23T04:23:57.829Z,43.53
2023-05-23T04:26:25.187Z,43.83
2023-05-23T04:28:54.155Z,46.15
2023-05-23T04:31:25.273Z,45.60
2023-05-23T04:33:52.385Z,44.42
2023-05-23T04:36:19.930Z,47.72
2023-05-23T04:38:52.185Z,47.70
2023-05-23T04:41:23.198Z,47.92
2023-05-23T04:44:06.418Z,47.45
2023-05-23T04:46:42.170Z,48.13
2023-05-23T04:49:21.364Z,47.03
2023-05-23T04:51:48.498Z,44.72
2023-05-23T04:54:27.284Z,46.78
2023-05-23T04:56:55.350Z,42.55
2023-05-23T04:59:23.618Z,40.70
2023-05-23T05:01:50.805Z,42.35
2023-05-23T05:04:19.314Z,39.78
2023-05-23T05:06:47.955Z,37.90
2023-05-23T05:09:14.805Z,37.25
2023-05-23T05:11:42.984Z,41.92
2023-05-23T05:14:09.705Z,39.83
2023-05-23T05:16:37.730Z,43.65
2023-05-23T05:19:04.583Z,47.20
2023-05-23T05:21:31.842Z,45.45
2023-05-23T05:23:59.786Z,46.50
2023-05-23T05:26:26.853Z,46.80
2023-05-23T05:28:54.098Z,48.75
2023-05-23T05:31:21.925Z,47.90
2023-05-23T05:33:49.770Z,45.92
2023-05-23T05:36:16.538Z,49.97
2023-05-23T05:38:44.379Z,52.53
2023-05-23T05:41:11.125Z,54.20
2023-05-23T05:43:42.316Z,61.50
2023-05-23T05:46:09.126Z,62.00
2023-05-23T05:48:35.864Z,58.47
2023-05-23T05:51:06.954Z,60.00
2023-05-23T05:53:34.488Z,61.28
2023-05-23T05:56:03.095Z,55.53
2023-05-23T05:58:31.362Z,56.95
2023-05-23T06:01:01.480Z,54.13
2023-05-23T06:03:28.475Z,58.40
2023-05-23T06:05:55.902Z,57.92
2023-05-23T06:08:22.563Z,59.47
2023-05-23T06:10:49.494Z,59.42
2023-05-23T06:13:17.451Z,55.50
2023-05-23T06:15:47.885Z,57.05
2023-05-23T06:18:14.911Z,60.22
2023-05-23T06:20:42.042Z,62.83
2023-05-23T06:23:14.014Z,61.55
2023-05-23T06:25:40.716Z,56.60
2023-05-23T06:28:07.472Z,57.05
2023-05-23T06:30:37.647Z,56.03
2023-05-23T06:33:05.052Z,58.88
2023-05-23T06:35:31.767Z,58.83
2023-05-23T06:38:01.013Z,60.00
2023-05-23T06:40:27.656Z,55.25
2023-05-23T06:42:54.371Z,51.22
2023-05-23T06:45:40.072Z,53.60
2023-05-23T06:48:06.766Z,50.05
2023-05-23T06:50:35.747Z,51.45
2023-05-23T06:53:03.310Z,53.25
2023-05-23T06:55:30.366Z,53.15
2023-05-23T06:57:57.668Z,52.83
2023-05-23T07:00:24.837Z,54.47
2023-05-23T07:03:03.681Z,55.45
2023-05-23T07:05:31.169Z,55.05
2023-05-23T07:07:57.962Z,52.97
2023-05-23T07:10:26.196Z,55.63
2023-05-23T07:12:55.376Z,51.70
2023-05-23T07:15:22.595Z,47.10
2023-05-23T07:20:25.860Z,53.40
2023-05-23T07:22:58.485Z,49.15
2023-05-23T07:25:25.296Z,47.72
2023-05-23T07:27:54.464Z,45.67
2023-05-23T07:30:22.740Z,46.65
2023-05-23T07:32:49.663Z,49.85
2023-05-23T07:35:17.222Z,51.67
2023-05-23T07:37:46.725Z,51.10
2023-05-23T07:40:14.557Z,51.58
2023-05-23T07:42:41.772Z,49.42
2023-05-23T07:45:08.757Z,48.72
2023-05-23T07:47:37.845Z,47.55
2023-05-23T07:50:05.472Z,44.97
2023-05-23T07:52:32.727Z,47.88
2023-05-23T07:55:01.006Z,44.45
2023-05-23T07:57:28.235Z,46.38
2023-05-23T07:59:54.933Z,46.55
2023-05-23T08:02:21.656Z,41.55
2023-05-23T08:04:48.733Z,36.67
2023-05-23T08:07:17.939Z,38.40
2023-05-23T08:09:50.429Z,39.17
2023-05-23T08:12:19.692Z,35.50
2023-05-23T08:14:52.384Z,37.58
2023-05-23T08:17:23.719Z,32.90
2023-05-23T08:19:52.064Z,28.20
2023-05-23T08:22:19.921Z,31.08
2023-05-23T08:24:46.772Z,28.58
2023-05-23T08:27:13.503Z,28.92
2023-05-23T08:29:41.259Z,28.00
2023-05-23T08:32:08.344Z,25.15
2023-05-23T08:34:35.131Z,24.08
2023-05-23T08:37:02.856Z,24.48
2023-05-23T08:39:29.593Z,22.30
2023-05-23T08:42:13.891Z,18.95
2023-05-23T08:44:40.616Z,16.90
2023-05-23T08:47:08.941Z,16.90
2023-05-23T08:49:56.542Z,15.60
2023-05-23T08:52:26.543Z,16.85
2023-05-23T08:54:56.522Z,14.18
2023-05-23T08:57:23.834Z,14.88
2023-05-23T08:59:56.325Z,14.77
2023-05-23T09:02:24.674Z,13.88
2023-05-23T09:04:55.814Z,11.90
2023-05-23T09:07:25.079Z,10.95
2023-05-23T09:09:53.376Z,11.18
2023-05-23T09:12:22.262Z,10.70
2023-05-23T09:14:49.044Z,10.65
2023-05-23T09:17:19.243Z,11.98
2023-05-23T09:19:47.437Z,11.43
2023-05-23T09:22:28.899Z,9.18
2023-05-23T09:25:01.071Z,9.13
2023-05-23T09:27:28.736Z,10.27
2023-05-23T09:29:55.458Z,9.88
2023-05-23T09:32:25.173Z,9.20
2023-05-23T09:34:59.091Z,9.55
2023-05-23T09:37:31.061Z,10.57
2023-05-23T09:40:10.081Z,9.93
2023-05-23T09:42:42.934Z,11.68
2023-05-23T09:45:10.365Z,10.90
2023-05-23T09:47:37.437Z,12.32
2023-05-23T09:50:04.951Z,11.68
2023-05-23T09:52:39.072Z,12.02
2023-05-23T09:55:07.028Z,11.70
2023-05-23T09:57:42.432Z,12.32
2023-05-23T10:00:16.865Z,11.85
2023-05-23T10:02:55.624Z,13.95
2023-05-23T10:05:36.221Z,12.95
2023-05-23T10:08:10.627Z,14.45
2023-05-23T10:11:11.640Z,14.15
2023-05-23T10:13:43.653Z,14.65
2023-05-23T10:16:27.068Z,14.32
2023-05-23T10:18:57.747Z,14.82
2023-05-23T10:21:40.815Z,15.63
2023-05-23T10:24:08.215Z,16.85
2023-05-23T10:26:37.776Z,18.02
2023-05-23T10:29:05.201Z,18.98
2023-05-23T10:31:32.341Z,19.98
2023-05-23T10:34:33.123Z,20.02
2023-05-23T10:37:09.864Z,21.13
2023-05-23T10:39:50.235Z,23.58
2023-05-23T10:42:35.262Z,22.27
2023-05-23T10:45:18.447Z,24.95
2023-05-23T10:47:46.656Z,23.95
2023-05-23T10:50:17.096Z,24.15
2023-05-23T10:52:44.934Z,23.10
2023-05-23T10:55:17.586Z,22.50
2023-05-23T10:57:45.057Z,21.17
2023-05-23T11:00:16.068Z,24.70
2023-05-23T11:03:00.220Z,25.10
2023-05-23T11:05:31.672Z,24.92
2023-05-23T11:08:13.869Z,23.45
2023-05-23T11:10:56.931Z,26.70
2023-05-23T11:13:23.917Z,28.15
2023-05-23T11:15:50.682Z,29.05
2023-05-23T11:18:30.913Z,29.65
2023-05-23T11:20:59.732Z,26.98
2023-05-23T11:23:42.064Z,28.13
2023-05-23T11:26:31.983Z,28.35
2023-05-23T11:29:00.144Z,27.08
2023-05-23T11:31:27.073Z,27.95
2023-05-23T11:33:54.253Z,28.30
2023-05-23T11:36:24.278Z,27.88
2023-05-23T11:38:53.143Z,26.77
2023-05-23T11:41:20.083Z,28.42
2023-05-23T11:43:53.708Z,30.17
2023-05-23T11:46:20.557Z,32.13
2023-05-23T11:48:48.113Z,33.60
2023-05-23T11:51:18.179Z,33.50
2023-05-23T11:53:45.980Z,34.05
2023-05-23T11:56:15.734Z,32.22
2023-05-23T11:58:44.989Z,31.65
2023-05-23T12:01:12.794Z,29.00
2023-05-23T12:03:51.035Z,28.80
2023-05-23T12:06:23.447Z,26.88
2023-05-23T12:08:51.491Z,29.48
2023-05-23T12:11:18.975Z,25.05
2023-05-23T12:13:45.938Z,23.30
2023-05-23T12:16:14.936Z,24.63
2023-05-23T12:18:43.044Z,21.58
2023-05-23T12:21:10.365Z,21.30
2023-05-23T12:23:37.481Z,20.88
2023-05-23T12:26:10.205Z,17.80
2023-05-23T12:28:37.849Z,15.75
2023-05-23T12:31:22.610Z,16.42
2023-05-23T12:33:52.543Z,17.20
2023-05-23T12:36:27.951Z,18.27
2023-05-23T12:39:03.530Z,18.33
2023-05-23T12:41:31.869Z,17.25
2023-05-23T12:43:59.459Z,18.17
2023-05-23T12:46:27.199Z,18.67
2023-05-23T12:48:54.864Z,17.90
2023-05-23T12:51:21.687Z,18.50
2023-05-23T12:53:48.615Z,19.30
2023-05-23T12:56:15.454Z,18.77
2023-05-23T12:58:42.101Z,20.48
2023-05-23T13:01:09.102Z,20.10
2023-05-23T13:03:35.912Z,21.50
2023-05-23T13:06:02.832Z,22.02
2023-05-23T13:08:29.507Z,21.77
2023-05-23T13:10:57.008Z,21.40
2023-05-23T13:13:24.284Z,22.25
2023-05-23T13:15:51.668Z,20.85
2023-05-23T13:18:18.913Z,19.73
2023-05-23T13:20:46.224Z,20.60
2023-05-23T13:23:12.949Z,20.50
2023-05-23T13:25:40.185Z,21.67
2023-05-23T13:28:07.044Z,23.13
2023-05-23T13:30:34.596Z,25.23
2023-05-23T13:33:01.617Z,25.75
2023-05-23T13:35:28.649Z,24.33
2023-05-23T13:37:55.475Z,25.98
2023-05-23T13:40:23.451Z,27.55
2023-05-23T13:42:51.246Z,28.65
2023-05-23T13:45:19.053Z,27.02
2023-05-23T13:47:46.422Z,28.98
2023-05-23T13:50:13.130Z,29.27
2023-05-23T13:52:43.483Z,26.33
2023-05-23T13:55:12.122Z,26.80
2023-05-23T13:57:38.811Z,29.13
2023-05-23T14:00:06.085Z,29.13
2023-05-23T14:02:34.689Z,29.17
2023-05-23T14:05:01.670Z,29.67
2023-05-23T14:07:28.497Z,25.60
2023-05-23T14:09:55.687Z,28.23
2023-05-23T14:12:22.340Z,26.65
2023-05-23T14:14:49.005Z,28.60
2023-05-23T14:17:16.573Z,27.95
2023-05-23T14:19:43.725Z,27.05
2023-05-23T14:22:11.354Z,28.40
2023-05-23T14:24:38.262Z,28.20
2023-05-23T14:27:05.073Z,27.25
2023-05-23T14:29:31.810Z,29.15
2023-05-23T14:32:00.593Z,29.13
2023-05-23T14:34:27.361Z,28.25
2023-05-23T14:36:54.158Z,28.48
2023-05-23T14:39:20.884Z,28.40
2023-05-23T14:41:47.546Z,30.48
2023-05-23T14:44:14.627Z,29.70
2023-05-23T14:46:42.699Z,28.65
2023-05-23T14:49:09.454Z,27.60
2023-05-23T14:54:09.422Z,26.08
2023-05-23T14:56:37.588Z,29.42
2023-05-23T14:59:05.379Z,28.08
2023-05-23T15:01:32.176Z,29.25
2023-05-23T15:03:58.900Z,26.10
2023-05-23T15:06:26.447Z,25.77
2023-05-23T15:08:53.361Z,26.88
2023-05-23T15:11:20.063Z,27.55
2023-05-23T15:13:46.724Z,28.73
2023-05-23T15:16:13.419Z,27.00
2023-05-23T15:18:42.040Z,27.55
2023-05-23T15:21:09.115Z,27.13
2023-05-23T15:23:36.499Z,25.98
2023-05-23T15:26:03.259Z,28.15
2023-05-23T15:28:29.901Z,28.00
2023-05-23T15:30:57.090Z,28.33
2023-05-23T15:33:23.905Z,27.30
2023-05-23T15:35:51.116Z,28.42
2023-05-23T15:38:19.251Z,28.60
2023-05-23T15:40:48.604Z,27.60
2023-05-23T15:43:15.387Z,26.90
2023-05-23T15:45:42.318Z,27.50
2023-05-23T15:48:09.242Z,26.83
2023-05-23T15:50:36.044Z,26.35
2023-05-23T15:53:02.776Z,27.05
2023-05-23T15:55:29.631Z,26.80
2023-05-23T15:57:56.470Z,28.00
2023-05-23T16:00:23.637Z,28.10
2023-05-23T16:02:50.308Z,28.05
2023-05-23T16:05:17.127Z,27.20
2023-05-23T16:07:44.159Z,26.98
2023-05-23T16:10:11.188Z,26.63
2023-05-23T16:12:37.855Z,28.35
2023-05-23T16:15:05.605Z,26.75
2023-05-23T16:17:32.283Z,27.88
2023-05-23T16:20:01.505Z,27.55
2023-05-23T16:22:28.241Z,27.10
2023-05-23T16:24:55.590Z,25.83
2023-05-23T16:27:23.752Z,27.00
2023-05-23T16:29:50.430Z,26.83
2023-05-23T16:32:17.089Z,26.15
2023-05-23T16:34:48.086Z,27.30
2023-05-23T16:37:17.779Z,24.53
2023-05-23T16:39:44.849Z,25.27
2023-05-23T16:42:11.553Z,26.02
2023-05-23T16:44:38.407Z,24.52
2023-05-23T16:47:05.268Z,26.13
2023-05-23T16:49:31.926Z,25.48
2023-05-23T16:51:58.631Z,25.23
2023-05-23T16:54:25.299Z,25.15
2023-05-23T16:56:51.937Z,25.17
2023-05-23T16:59:18.570Z,24.33
2023-05-23T17:01:45.374Z,27.20
2023-05-23T17:04:12.115Z,25.45
2023-05-23T17:06:38.813Z,25.65
2023-05-23T17:09:05.488Z,25.52
2023-05-23T17:11:32.265Z,27.15
2023-05-23T17:13:58.927Z,27.05
2023-05-23T17:16:25.669Z,25.42
2023-05-23T17:18:52.496Z,25.20
2023-05-23T17:21:19.209Z,27.05
2023-05-23T17:23:45.869Z,27.13
2023-05-23T17:26:13.111Z,25.27
2023-05-23T17:28:39.788Z,27.80
2023-05-23T17:31:06.568Z,27.33
2023-05-23T17:33:33.441Z,28.27
2023-05-23T17:36:00.198Z,26.58
2023-05-23T17:38:27.000Z,26.27
2023-05-23T17:40:53.774Z,26.60
2023-05-23T17:43:20.719Z,26.83
2023-05-23T17:45:47.462Z,25.45
2023-05-23T17:48:17.246Z,28.15
2023-05-23T17:50:44.809Z,26.52
2023-05-23T17:53:11.492Z,26.83
2023-05-23T17:55:38.365Z,27.08
2023-05-23T17:58:05.060Z,26.60
2023-05-23T18:00:31.724Z,27.00
2023-05-23T18:02:58.615Z,27.33
2023-05-23T18:05:25.608Z,24.42
2023-05-23T18:07:52.518Z,24.50
2023-05-23T18:10:19.458Z,24.95
2023-05-23T18:12:46.512Z,24.38
2023-05-23T18:15:13.259Z,24.98
2023-05-23T18:17:40.332Z,24.40
2023-05-23T18:20:07.807Z,24.88
2023-05-23T18:22:34.648Z,25.58
2023-05-23T18:25:01.352Z,25.33
2023-05-23T18:27:28.042Z,25.30
2023-05-23T18:29:54.899Z,26.92
2023-05-23T18:32:21.761Z,24.65
2023-05-23T18:34:48.509Z,25.55
2023-05-23T18:37:15.461Z,25.77
2023-05-23T18:39:42.959Z,24.77
2023-05-23T18:42:09.672Z,25.13
2023-05-23T18:44:36.468Z,23.85
2023-05-23T18:47:03.270Z,24.75
2023-05-23T18:49:29.924Z,24.15
2023-05-23T18:51:57.063Z,24.77
2023-05-23T18:54:23.871Z,25.50
2023-05-23T18:56:50.537Z,24.60
2023-05-23T18:59:17.534Z,24.15
2023-05-23T19:01:44.276Z,25.55
2023-05-23T19:04:11.131Z,25.40
2023-05-23T19:06:37.865Z,26.70
2023-05-23T19:09:09.372Z,25.42
2023-05-23T19:11:37.365Z,26.10
2023-05-23T19:14:04.069Z,22.42
2023-05-23T19:16:31.498Z,22.88
2023-05-23T19:18:58.482Z,24.25
2023-05-23T19:21:25.459Z,23.40
2023-05-23T19:23:52.220Z,23.33
2023-05-23T19:26:20.494Z,23.33
2023-05-23T19:28:47.394Z,22.67
2023-05-23T19:31:14.144Z,22.80
2023-05-23T19:33:40.841Z,22.48
2023-05-23T19:36:08.455Z,23.48
2023-05-23T19:38:35.282Z,22.48
2023-05-23T19:41:01.934Z,23.15
2023-05-23T19:43:28.601Z,23.90
2023-05-23T19:45:55.248Z,21.90
2023-05-23T19:48:22.341Z,22.83
2023-05-23T19:50:48.968Z,22.20
2023-05-23T19:53:15.724Z,22.73
2023-05-23T19:55:42.713Z,22.80
2023-05-23T19:58:09.435Z,22.17
2023-05-23T20:00:36.491Z,22.45
2023-05-23T20:03:04.299Z,23.42
2023-05-23T20:05:31.306Z,23.55
2023-05-23T20:07:58.188Z,23.10
2023-05-23T20:10:25.927Z,24.67
2023-05-23T20:12:52.608Z,23.08
2023-05-23T20:15:31.152Z,24.83
2023-05-23T20:18:05.745Z,22.55
2023-05-23T20:20:32.462Z,23.58
2023-05-23T20:22:59.195Z,22.98
2023-05-23T20:25:28.302Z,22.67
2023-05-23T20:27:56.479Z,22.25
2023-05-23T20:30:23.508Z,21.83
2023-05-23T20:32:53.414Z,23.10
2023-05-23T20:35:22.016Z,23.02
2023-05-23T20:37:51.538Z,23.42
2023-05-23T20:40:18.722Z,22.13
2023-05-23T20:42:45.750Z,21.65
2023-05-23T20:45:12.504Z,22.67
2023-05-23T20:47:41.511Z,22.13
2023-05-23T20:50:10.188Z,22.13
2023-05-23T20:52:39.119Z,22.58
2023-05-23T20:55:06.951Z,21.77
2023-05-23T20:57:36.371Z,22.30
2023-05-23T21:00:10.874Z,22.75
2023-05-23T21:02:38.625Z,22.60
2023-05-23T21:05:06.920Z,21.80
2023-05-23T21:07:33.856Z,21.80
2023-05-23T21:10:00.575Z,22.02
2023-05-23T21:12:27.782Z,21.77
2023-05-23T21:14:56.835Z,22.05
2023-05-23T21:17:23.890Z,22.48
2023-05-23T21:19:51.009Z,21.17
2023-05-23T21:22:17.635Z,21.98
2023-05-23T21:24:44.404Z,22.42
2023-05-23T21:27:11.365Z,22.17
2023-05-23T21:29:38.085Z,21.80
2023-05-23T21:32:05.190Z,21.58
2023-05-23T21:34:32.001Z,22.10
2023-05-23T21:36:58.715Z,22.50
2023-05-23T21:39:27.371Z,21.40
2023-05-23T21:41:57.535Z,22.15
2023-05-23T21:44:24.208Z,22.38
2023-05-23T21:46:50.986Z,21.90
2023-05-23T21:49:17.748Z,21.05
2023-05-23T21:51:44.477Z,21.52
2023-05-23T21:54:11.172Z,23.08
2023-05-23T21:56:37.830Z,22.30
2023-05-23T21:59:04.468Z,21.50
2023-05-23T22:01:31.922Z,21.88
2023-05-23T22:03:58.651Z,21.45
2023-05-23T22:06:26.030Z,22.50
2023-05-23T22:08:52.951Z,21.45
2023-05-23T22:11:19.619Z,21.73
2023-05-23T22:13:46.555Z,21.75
2023-05-23T22:16:13.310Z,22.00
2023-05-23T22:18:51.110Z,21.52
2023-05-23T22:21:18.413Z,22.65
2023-05-23T22:23:45.272Z,21.40
2023-05-23T22:26:12.666Z,20.90
2023-05-23T22:28:39.552Z,21.23
2023-05-23T22:31:06.502Z,21.23
2023-05-23T22:33:33.288Z,21.17
2023-05-23T22:36:00.061Z,20.98
2023-05-23T22:38:26.980Z,20.67
2023-05-23T22:40:53.631Z,21.77
2023-05-23T22:43:21.664Z,20.60
2023-05-23T22:45:49.968Z,20.55
2023-05-23T22:48:19.642Z,21.13
2023-05-23T22:50:46.776Z,20.45
2023-05-23T22:53:16.596Z,21.45
2023-05-23T22:55:43.239Z,19.45
2023-05-23T22:58:10.540Z,20.98
2023-05-23T23:00:37.354Z,20.67
2023-05-23T23:03:04.307Z,19.52
2023-05-23T23:05:31.471Z,20.67
2023-05-23T23:07:58.423Z,21.02
2023-05-23T23:10:25.252Z,20.27
2023-05-23T23:12:51.877Z,20.08
2023-05-23T23:15:18.568Z,19.60
2023-05-23T23:17:45.619Z,20.25
2023-05-23T23:20:12.792Z,19.92
2023-05-23T23:22:39.846Z,20.63
2023-05-23T23:25:10.488Z,20.10
2023-05-23T23:27:38.273Z,19.30
2023-05-23T23:30:06.481Z,19.45
2023-05-23T23:32:34.326Z,21.40
2023-05-23T23:35:01.521Z,19.73
2023-05-23T23:37:28.246Z,19.58
2023-05-23T23:39:54.944Z,19.48
2023-05-23T23:42:21.716Z,18.83
2023-05-23T23:44:48.492Z,18.55
2023-05-23T23:47:15.351Z,18.77
2023-05-23T23:49:42.126Z,19.92
2023-05-23T23:52:08.937Z,18.38
2023-05-23T23:54:35.884Z,19.73
2023-05-23T23:57:02.663Z,18.85
2023-05-23T23:59:29.315Z,18.13
